createdAt,value
2018-09-25T00:02:12.697Z,5.67
2018-09-25T00:04:46.190Z,4.50
2018-09-25T00:07:19.649Z,2.73
2018-09-25T00:09:53.154Z,2.33
2018-09-25T00:12:26.672Z,1.70
2018-09-25T00:15:00.163Z,4.67
2018-09-25T00:17:33.690Z,2.20
2018-09-25T00:20:07.213Z,2.30
2018-09-25T00:22:40.757Z,3.80
2018-09-25T00:25:14.403Z,6.20
2018-09-25T00:27:48.029Z,4.63
2018-09-25T00:30:21.733Z,2.33
2018-09-25T00:32:55.406Z,2.33
2018-09-25T00:35:28.941Z,3.50
2018-09-25T00:38:02.435Z,5.30
2018-09-25T00:40:35.900Z,2.13
2018-09-25T00:43:09.384Z,2.73
2018-09-25T00:45:43.129Z,2.87
2018-09-25T00:48:16.845Z,2.70
2018-09-25T00:50:50.365Z,3.70
2018-09-25T00:53:24.104Z,3.83
2018-09-25T00:55:57.725Z,2.27
2018-09-25T00:58:31.306Z,2.10
2018-09-25T01:01:05.081Z,4.07
2018-09-25T01:03:38.720Z,1.43
2018-09-25T01:06:12.460Z,2.47
2018-09-25T01:08:46.169Z,2.50
2018-09-25T01:11:19.840Z,2.43
2018-09-25T01:13:53.343Z,1.70
2018-09-25T01:16:27.103Z,2.27
2018-09-25T01:19:02.844Z,2.47
2018-09-25T01:21:36.313Z,2.83
2018-09-25T01:24:09.803Z,2.20
2018-09-25T01:26:43.256Z,2.20
2018-09-25T01:29:16.981Z,3.70
2018-09-25T01:31:50.606Z,0.90
2018-09-25T01:34:24.070Z,0.83
2018-09-25T01:36:57.788Z,3.43
2018-09-25T01:39:31.401Z,3.13
2018-09-25T01:42:04.851Z,2.47
2018-09-25T01:44:38.289Z,3.40
2018-09-25T01:47:11.952Z,3.57
2018-09-25T01:49:45.615Z,4.23
2018-09-25T01:52:19.287Z,2.90
2018-09-25T01:54:52.829Z,1.73
2018-09-25T01:57:26.538Z,3.93
2018-09-25T02:00:00.270Z,3.23
2018-09-25T02:02:33.829Z,2.17
2018-09-25T02:05:07.418Z,2.00
2018-09-25T02:07:42.913Z,3.90
2018-09-25T02:10:16.495Z,3.53
2018-09-25T02:12:50.152Z,4.23
2018-09-25T02:15:23.642Z,3.97
2018-09-25T02:17:57.148Z,3.43
2018-09-25T02:20:30.615Z,2.83
2018-09-25T02:23:04.152Z,5.27
2018-09-25T02:25:37.751Z,4.40
2018-09-25T02:28:11.195Z,2.50
2018-09-25T02:30:51.288Z,2.10
2018-09-25T02:33:24.781Z,2.80
2018-09-25T02:35:58.375Z,2.60
2018-09-25T02:38:31.838Z,4.30
2018-09-25T02:41:05.555Z,3.80
2018-09-25T02:43:39.117Z,1.53
2018-09-25T02:46:12.890Z,2.87
2018-09-25T02:48:46.451Z,4.00
2018-09-25T02:51:21.033Z,3.73
2018-09-25T02:53:54.481Z,5.00
2018-09-25T02:56:28.057Z,4.83
2018-09-25T02:59:01.724Z,4.10
2018-09-25T03:01:35.418Z,6.60
2018-09-25T03:04:09.000Z,2.23
2018-09-25T03:06:42.473Z,3.07
2018-09-25T03:09:15.956Z,3.97
2018-09-25T03:11:49.720Z,7.37
2018-09-25T03:14:23.292Z,3.33
2018-09-25T03:16:56.877Z,5.13
2018-09-25T03:19:30.516Z,5.50
2018-09-25T03:22:04.186Z,2.43
2018-09-25T03:24:37.920Z,4.03
2018-09-25T03:27:11.460Z,5.30
2018-09-25T03:29:45.153Z,3.23
2018-09-25T03:32:18.750Z,5.47
2018-09-25T03:34:52.491Z,3.80
2018-09-25T03:37:26.021Z,4.73
2018-09-25T03:39:59.710Z,3.90
2018-09-25T03:42:33.200Z,5.73
2018-09-25T03:45:06.982Z,3.97
2018-09-25T03:47:40.544Z,5.73
2018-09-25T03:50:14.107Z,6.17
2018-09-25T03:52:47.628Z,4.40
2018-09-25T03:55:21.141Z,6.17
2018-09-25T03:57:54.731Z,5.30
2018-09-25T04:00:28.466Z,6.90
2018-09-25T04:03:02.058Z,7.13
2018-09-25T04:05:37.605Z,4.27
2018-09-25T04:08:11.369Z,5.63
2018-09-25T04:10:44.988Z,8.57
2018-09-25T04:13:18.501Z,3.33
2018-09-25T04:15:51.949Z,7.30
2018-09-25T04:18:25.488Z,5.03
2018-09-25T04:20:58.926Z,6.97
2018-09-25T04:23:32.667Z,8.27
2018-09-25T04:26:06.339Z,10.53
2018-09-25T04:28:39.905Z,8.47
2018-09-25T04:31:13.640Z,6.73
2018-09-25T04:33:47.138Z,10.43
2018-09-25T04:36:20.697Z,7.87
2018-09-25T04:38:54.365Z,8.33
2018-09-25T04:41:27.917Z,4.97
2018-09-25T04:44:01.434Z,5.73
2018-09-25T04:46:34.978Z,6.90
2018-09-25T04:49:08.445Z,8.03
2018-09-25T04:51:42.801Z,7.87
2018-09-25T04:54:16.326Z,11.20
2018-09-25T04:56:51.890Z,5.77
2018-09-25T04:59:25.738Z,6.20
2018-09-25T05:01:59.289Z,10.63
2018-09-25T05:04:32.789Z,5.00
2018-09-25T05:07:06.457Z,8.30
2018-09-25T05:09:40.878Z,6.20
2018-09-25T05:12:14.418Z,7.80
2018-09-25T05:14:47.896Z,11.97
2018-09-25T05:17:21.462Z,5.03
2018-09-25T05:19:55.158Z,9.80
2018-09-25T05:22:28.952Z,12.37
2018-09-25T05:25:02.646Z,9.80
2018-09-25T05:27:36.129Z,8.53
2018-09-25T05:30:09.866Z,8.27
2018-09-25T05:32:43.347Z,7.73
2018-09-25T05:35:16.952Z,10.97
2018-09-25T05:37:50.568Z,8.70
2018-09-25T05:40:24.138Z,8.07
2018-09-25T05:42:57.781Z,7.13
2018-09-25T05:45:31.477Z,7.47
2018-09-25T05:48:05.057Z,5.83
2018-09-25T05:50:38.658Z,7.37
2018-09-25T05:53:12.277Z,8.00
2018-09-25T05:55:45.893Z,5.97
2018-09-25T05:58:19.463Z,9.97
2018-09-25T06:00:52.908Z,6.17
2018-09-25T06:03:26.484Z,8.63
2018-09-25T06:05:59.932Z,7.47
2018-09-25T06:08:33.422Z,8.67
2018-09-25T06:11:06.980Z,6.10
2018-09-25T06:13:40.732Z,7.40
2018-09-25T06:16:14.330Z,8.43
2018-09-25T06:18:47.863Z,12.40
2018-09-25T06:21:21.312Z,6.13
2018-09-25T06:23:55.027Z,5.73
2018-09-25T06:26:28.642Z,5.13
2018-09-25T06:29:02.298Z,5.87
2018-09-25T06:31:35.800Z,6.23
2018-09-25T06:34:09.312Z,6.60
2018-09-25T06:36:43.081Z,5.43
2018-09-25T06:39:16.744Z,7.43
2018-09-25T06:41:50.194Z,8.00
2018-09-25T06:44:23.859Z,5.47
2018-09-25T06:46:57.568Z,9.30
2018-09-25T06:49:31.266Z,8.73
2018-09-25T06:52:04.904Z,6.53
2018-09-25T06:54:38.614Z,9.20
2018-09-25T06:57:12.136Z,9.10
2018-09-25T06:59:45.660Z,8.53
2018-09-25T07:02:19.237Z,6.17
2018-09-25T07:04:52.909Z,8.20
2018-09-25T07:07:26.503Z,7.13
2018-09-25T07:10:00.102Z,5.87
2018-09-25T07:12:33.465Z,8.60
2018-09-25T07:15:07.203Z,8.50
2018-09-25T07:17:40.891Z,10.07
2018-09-25T07:20:14.464Z,13.53
2018-09-25T07:22:48.549Z,7.67
2018-09-25T07:25:22.005Z,7.97
2018-09-25T07:27:55.615Z,7.00
2018-09-25T07:30:29.409Z,10.33
2018-09-25T07:33:02.854Z,6.27
2018-09-25T07:35:36.608Z,7.70
2018-09-25T07:38:10.242Z,8.17
2018-09-25T07:40:43.833Z,6.10
2018-09-25T07:43:17.321Z,8.80
2018-09-25T07:45:51.331Z,7.73
2018-09-25T07:48:24.900Z,9.67
2018-09-25T07:50:58.613Z,5.03
2018-09-25T07:53:32.336Z,4.50
2018-09-25T07:56:05.853Z,3.63
2018-09-25T07:58:40.005Z,10.70
2018-09-25T08:01:13.905Z,6.10
2018-09-25T08:03:47.510Z,6.30
2018-09-25T08:06:21.040Z,7.07
2018-09-25T08:08:54.705Z,6.23
2018-09-25T08:11:28.252Z,8.47
2018-09-25T08:14:01.961Z,5.50
2018-09-25T08:16:36.108Z,5.70
2018-09-25T08:19:09.644Z,8.70
2018-09-25T08:21:43.121Z,4.90
2018-09-25T08:24:16.638Z,4.90
2018-09-25T08:26:50.172Z,4.37
2018-09-25T08:29:23.667Z,7.93
2018-09-25T08:31:57.365Z,4.53
2018-09-25T08:34:31.244Z,5.23
2018-09-25T08:37:05.069Z,5.93
2018-09-25T08:39:38.734Z,5.40
2018-09-25T08:42:12.421Z,9.13
2018-09-25T08:44:46.702Z,3.20
2018-09-25T08:47:20.282Z,5.43
2018-09-25T08:49:53.867Z,9.77
2018-09-25T08:52:27.626Z,7.10
2018-09-25T08:55:01.297Z,4.50
2018-09-25T08:57:35.092Z,4.77
2018-09-25T09:00:08.808Z,6.70
2018-09-25T09:02:42.343Z,3.87
2018-09-25T09:05:16.191Z,4.43
2018-09-25T09:07:49.929Z,4.17
2018-09-25T09:10:23.478Z,7.97
2018-09-25T09:12:57.214Z,4.00
2018-09-25T09:15:30.780Z,2.30
2018-09-25T09:18:04.534Z,3.53
2018-09-25T09:20:38.147Z,3.57
2018-09-25T09:23:11.652Z,4.47
2018-09-25T09:25:45.410Z,5.63
2018-09-25T09:28:18.885Z,3.10
2018-09-25T09:30:52.526Z,6.33
2018-09-25T09:33:26.065Z,6.87
2018-09-25T09:35:59.726Z,3.80
2018-09-25T09:38:33.390Z,4.07
2018-09-25T09:41:06.966Z,3.50
2018-09-25T09:43:40.663Z,6.07
2018-09-25T09:46:14.248Z,3.90
2018-09-25T09:48:47.750Z,6.37
2018-09-25T09:51:21.182Z,6.63
2018-09-25T09:53:56.795Z,5.40
2018-09-25T09:56:30.348Z,3.83
2018-09-25T09:59:04.138Z,4.70
2018-09-25T10:01:37.738Z,3.67
2018-09-25T10:04:11.272Z,5.27
2018-09-25T10:06:44.801Z,3.17
2018-09-25T10:09:18.291Z,8.80
2018-09-25T10:11:51.751Z,7.00
2018-09-25T10:14:25.337Z,2.77
2018-09-25T10:16:59.041Z,6.50
2018-09-25T10:19:32.595Z,4.73
2018-09-25T10:22:06.364Z,3.37
2018-09-25T10:24:40.074Z,5.43
2018-09-25T10:27:13.622Z,5.00
2018-09-25T10:29:47.189Z,6.40
2018-09-25T10:32:20.633Z,4.77
2018-09-25T10:34:54.163Z,4.70
2018-09-25T10:37:27.692Z,3.43
2018-09-25T10:40:01.312Z,3.90
2018-09-25T10:42:34.797Z,4.77
2018-09-25T10:45:08.331Z,5.00
2018-09-25T10:47:42.028Z,5.77
2018-09-25T10:50:15.779Z,4.67
2018-09-25T10:52:49.400Z,4.67
2018-09-25T10:55:23.100Z,2.60
2018-09-25T10:57:56.835Z,4.20
2018-09-25T11:00:30.403Z,7.37
2018-09-25T11:03:03.990Z,2.90
2018-09-25T11:05:37.659Z,3.53
2018-09-25T11:08:11.517Z,3.57
2018-09-25T11:10:45.238Z,3.07
2018-09-25T11:13:18.878Z,3.57
2018-09-25T11:15:52.347Z,5.70
2018-09-25T11:18:25.905Z,2.47
2018-09-25T11:20:59.351Z,5.20
2018-09-25T11:23:32.978Z,3.63
2018-09-25T11:26:06.650Z,4.60
2018-09-25T11:28:40.291Z,2.37
2018-09-25T11:31:14.212Z,5.37
2018-09-25T11:33:47.908Z,3.93
2018-09-25T11:36:21.465Z,2.67
2018-09-25T11:38:55.132Z,5.00
2018-09-25T11:41:28.641Z,3.30
2018-09-25T11:44:02.122Z,3.57
2018-09-25T11:46:35.667Z,3.03
2018-09-25T11:49:09.445Z,2.23
2018-09-25T11:51:42.957Z,3.03
2018-09-25T11:54:16.705Z,3.90
2018-09-25T11:56:50.295Z,4.33
2018-09-25T11:59:23.957Z,1.73
2018-09-25T12:01:57.628Z,2.47
2018-09-25T12:04:31.105Z,2.77
2018-09-25T12:07:04.868Z,2.00
2018-09-25T12:09:38.516Z,2.63
2018-09-25T12:12:12.259Z,3.13
2018-09-25T12:14:46.016Z,1.80
2018-09-25T12:17:19.799Z,1.97
2018-09-25T12:19:53.484Z,3.13
2018-09-25T12:22:27.122Z,2.37
2018-09-25T12:25:00.662Z,2.50
2018-09-25T12:27:34.393Z,2.47
2018-09-25T12:30:07.992Z,1.93
2018-09-25T12:32:41.542Z,2.10
2018-09-25T12:35:15.035Z,3.57
2018-09-25T12:37:48.692Z,3.33
2018-09-25T12:40:22.338Z,1.67
2018-09-25T12:42:56.000Z,1.67
2018-09-25T12:45:29.698Z,3.87
2018-09-25T12:48:03.423Z,3.03
2018-09-25T12:50:37.244Z,1.90
2018-09-25T12:53:10.844Z,1.93
2018-09-25T12:55:44.444Z,1.63
2018-09-25T12:58:18.066Z,3.10
2018-09-25T13:00:51.753Z,2.93
2018-09-25T13:03:25.368Z,2.67
2018-09-25T13:05:58.860Z,3.20
2018-09-25T13:08:32.517Z,2.93
2018-09-25T13:11:05.927Z,2.23
2018-09-25T13:13:39.552Z,2.73
2018-09-25T13:16:13.165Z,1.13
2018-09-25T13:18:46.826Z,1.87
2018-09-25T13:21:20.448Z,2.37
2018-09-25T13:23:54.135Z,2.23
2018-09-25T13:26:27.886Z,1.63
2018-09-25T13:29:01.697Z,3.27
2018-09-25T13:31:35.340Z,1.83
2018-09-25T13:34:08.918Z,1.07
2018-09-25T13:36:42.583Z,2.17
2018-09-25T13:39:16.269Z,3.97
2018-09-25T13:41:49.747Z,1.93
2018-09-25T13:44:23.323Z,2.53
2018-09-25T13:46:56.839Z,2.33
2018-09-25T13:49:30.672Z,2.20
2018-09-25T13:52:04.220Z,1.77
2018-09-25T13:54:37.751Z,3.23
2018-09-25T13:57:11.355Z,2.33
2018-09-25T13:59:45.109Z,2.03
2018-09-25T14:02:18.737Z,2.17
2018-09-25T14:04:52.608Z,3.33
2018-09-25T14:07:26.153Z,3.37
2018-09-25T14:09:59.662Z,2.73
2018-09-25T14:12:33.334Z,1.87
2018-09-25T14:15:06.978Z,3.57
2018-09-25T14:17:40.674Z,2.00
2018-09-25T14:20:14.357Z,1.93
2018-09-25T14:22:47.890Z,1.90
2018-09-25T14:25:21.615Z,1.80
2018-09-25T14:27:55.233Z,4.20
2018-09-25T14:30:28.761Z,1.77
2018-09-25T14:33:02.462Z,1.27
2018-09-25T14:35:36.127Z,2.30
2018-09-25T14:38:09.834Z,1.47
2018-09-25T14:40:43.405Z,2.10
2018-09-25T14:43:16.985Z,3.03
2018-09-25T14:45:50.831Z,4.40
2018-09-25T14:48:24.562Z,2.37
2018-09-25T14:50:58.297Z,3.13
2018-09-25T14:53:31.907Z,1.73
2018-09-25T14:56:05.612Z,3.20
2018-09-25T14:58:39.322Z,4.63
2018-09-25T15:01:13.109Z,3.60
2018-09-25T15:03:46.869Z,2.63
2018-09-25T15:06:20.533Z,2.90
2018-09-25T15:08:54.099Z,4.60
2018-09-25T15:11:27.661Z,5.87
2018-09-25T15:14:01.356Z,3.50
2018-09-25T15:16:34.881Z,4.77
2018-09-25T15:19:08.655Z,1.93
2018-09-25T15:21:42.533Z,3.23
2018-09-25T15:24:15.862Z,2.63
2018-09-25T15:29:28.800Z,2.93
2018-09-25T15:32:02.372Z,4.97
2018-09-25T15:34:36.206Z,3.30
2018-09-25T15:37:09.856Z,4.70
2018-09-25T15:39:43.533Z,4.07
2018-09-25T15:42:17.068Z,5.20
2018-09-25T15:44:50.728Z,5.03
2018-09-25T15:47:24.380Z,5.70
2018-09-25T15:49:58.083Z,5.23
2018-09-25T15:52:31.635Z,5.73
2018-09-25T15:55:05.415Z,5.80
2018-09-25T15:57:38.916Z,3.80
2018-09-25T16:00:12.553Z,7.40
2018-09-25T16:02:46.041Z,6.33
2018-09-25T16:05:19.501Z,4.80
2018-09-25T16:07:53.195Z,6.03
2018-09-25T16:10:26.855Z,6.13
2018-09-25T16:13:00.558Z,4.03
2018-09-25T16:15:34.033Z,5.03
2018-09-25T16:18:08.243Z,5.07
2018-09-25T16:20:41.801Z,5.80
2018-09-25T16:23:16.004Z,5.13
2018-09-25T16:25:49.453Z,6.47
2018-09-25T16:28:23.225Z,7.00
2018-09-25T16:30:56.848Z,6.10
2018-09-25T16:33:30.588Z,6.90
2018-09-25T16:36:04.172Z,7.53
2018-09-25T16:38:37.880Z,5.77
2018-09-25T16:41:11.652Z,6.10
2018-09-25T16:43:45.144Z,8.60
2018-09-25T16:46:18.844Z,5.20
2018-09-25T16:48:52.483Z,7.70
2018-09-25T16:51:25.992Z,7.33
2018-09-25T16:53:59.579Z,8.63
2018-09-25T16:56:33.163Z,7.43
2018-09-25T16:59:06.884Z,7.63
2018-09-25T17:01:40.499Z,5.57
2018-09-25T17:04:14.103Z,6.93
2018-09-25T17:06:47.739Z,5.70
2018-09-25T17:09:21.584Z,5.73
2018-09-25T17:11:55.268Z,7.60
2018-09-25T17:14:29.023Z,7.77
2018-09-25T17:17:02.765Z,6.43
2018-09-25T17:19:36.391Z,8.87
2018-09-25T17:22:10.072Z,7.50
2018-09-25T17:24:43.579Z,6.60
2018-09-25T17:27:17.258Z,10.80
2018-09-25T17:29:50.843Z,17.37
2018-09-25T17:32:24.527Z,15.20
2018-09-25T17:34:58.201Z,14.57
2018-09-25T17:37:31.892Z,9.60
2018-09-25T17:40:05.558Z,12.30
2018-09-25T17:42:39.276Z,8.33
2018-09-25T17:45:12.909Z,8.00
2018-09-25T17:47:46.507Z,9.67
2018-09-25T17:50:20.124Z,8.07
2018-09-25T17:52:53.612Z,10.03
2018-09-25T17:55:29.329Z,7.53
2018-09-25T17:58:04.893Z,12.23
2018-09-25T18:00:38.447Z,11.33
2018-09-25T18:03:12.449Z,9.37
2018-09-25T18:05:46.175Z,9.17
2018-09-25T18:08:19.680Z,8.00
2018-09-25T18:10:53.361Z,7.30
2018-09-25T18:13:26.986Z,7.27
2018-09-25T18:16:00.595Z,9.17
2018-09-25T18:18:34.197Z,7.80
2018-09-25T18:21:07.734Z,7.80
2018-09-25T18:23:41.369Z,5.63
2018-09-25T18:26:15.096Z,6.37
2018-09-25T18:28:48.560Z,6.97
2018-09-25T18:31:22.264Z,7.40
2018-09-25T18:33:55.832Z,9.10
2018-09-25T18:36:29.325Z,10.87
2018-09-25T18:39:02.800Z,7.63
2018-09-25T18:41:36.295Z,9.97
2018-09-25T18:44:09.808Z,11.17
2018-09-25T18:46:43.548Z,8.37
2018-09-25T18:49:17.236Z,5.77
2018-09-25T18:51:50.926Z,8.50
2018-09-25T18:54:24.403Z,7.70
2018-09-25T18:56:57.928Z,6.67
2018-09-25T18:59:31.584Z,7.87
2018-09-25T19:02:05.072Z,7.33
2018-09-25T19:04:38.795Z,7.90
2018-09-25T19:07:12.396Z,6.90
2018-09-25T19:09:46.014Z,8.40
2018-09-25T19:12:19.662Z,6.77
2018-09-25T19:14:53.456Z,6.10
2018-09-25T19:17:27.047Z,4.40
2018-09-25T19:20:00.736Z,5.63
2018-09-25T19:22:34.422Z,6.63
2018-09-25T19:25:08.137Z,7.93
2018-09-25T19:27:41.692Z,7.20
2018-09-25T19:30:15.201Z,6.60
2018-09-25T19:32:48.940Z,6.33
2018-09-25T19:35:22.677Z,6.37
2018-09-25T19:37:56.352Z,8.07
2018-09-25T19:40:30.040Z,7.27
2018-09-25T19:43:03.793Z,6.53
2018-09-25T19:45:37.533Z,6.43
2018-09-25T19:48:11.279Z,7.00
2018-09-25T19:50:44.887Z,8.03
2018-09-25T19:53:18.383Z,8.30
2018-09-25T19:55:52.081Z,9.13
2018-09-25T19:58:25.695Z,4.70
2018-09-25T20:00:59.329Z,8.77
2018-09-25T20:03:33.051Z,6.90
2018-09-25T20:06:06.662Z,5.73
2018-09-25T20:08:40.235Z,5.60
2018-09-25T20:11:14.040Z,7.27
2018-09-25T20:13:48.464Z,6.40
2018-09-25T20:16:22.203Z,5.87
2018-09-25T20:18:55.749Z,6.20
2018-09-25T20:21:29.461Z,4.37
2018-09-25T20:24:03.095Z,6.77
